• Join FlightAware (Why Join?)
  • Login
  • US Flag 
03:35AM EST


 

Airport Tracker/Info


-or-


 

Live Flight TrackerFlight Track Log ✈ AWE1525 ✈ 24-Jun-2013 ✈ KSYR - KCLT

Flight Track Log - Related Links

Times and Time Zones

All times are in EDT time to prevent confusion due to time zone crossing. See the AWE1525 flight status page for this flight to view local times or setup timezone preferences in your user account.

Time Position Orientation Groundspeed Altitude Reporting Facility
EDT Latitude Longitude Course Direction KTS MPH feet Rate Location/Type
07:07PM 43.1089 -76.0892 204° Southwest 147 169 1,200  Level Boston Center
07:08PM 43.0817 -76.0336 124° Southeast 204 235 2,900 1,680 Climbing Boston Center
07:09PM 43.0153 -76.0156 169° South 279 321 4,800 2,340 Climbing Boston Center
07:10PM 42.9753 -76.0928 235° Southwest 259 298 7,700 2,520 Climbing Boston Center
07:11PM 42.9453 -76.1847 246° West 268 308 9,900 1,740 Climbing Boston Center
07:13PM 42.5492 -76.6638 204° Southwest  Level FlightAware Approximate
07:14PM 42.7725 -76.3083 208° Southwest 311 358 13,500  Level New York Center
07:15PM 42.6714 -76.3336 190° South 336 387 16,000 2,100 Climbing New York Center
07:16PM 42.5683 -76.3586 190° South 365 420 17,800 1,920 Climbing New York Center
07:17PM 42.4589 -76.3858 190° South 385 443 20,000 1,980 Climbing New York Center
07:18PM 42.3492 -76.4158 191° South 398 458 21,800 1,620 Climbing New York Center
07:20PM 42.1289 -76.4947 195° South 414 476 24,900 1,500 Climbing New York Center
07:21PM 42.0347 -76.5928 218° Southwest 423 487 26,400 1,320 Climbing New York Center
07:22PM 41.9478 -76.7078 225° Southwest 423 487 27,600 1,320 Climbing New York Center
07:23PM 41.8589 -76.8194 223° Southwest 435 501 29,000 1,260 Climbing New York Center
07:24PM 41.7656 -76.9361 223° Southwest 448 516 30,200 1,020 Climbing New York Center
07:25PM 41.6742 -77.0500 223° Southwest 455 524 31,100 1,080 Climbing New York Center
07:26PM 41.5800 -77.1717 224° Southwest 468 539 32,400 1,140 Climbing New York Center
07:27PM 41.4950 -77.2797 224° Southwest 468 539 33,400 1,080 Climbing New York Center
07:28PM 41.3900 -77.4081 223° Southwest 468 539 34,600 1,080 Climbing New York Center
07:29PM 41.2936 -77.5283 223° Southwest 468 539 35,600 960 Climbing New York Center
07:31PM 41.0592 -77.8128 222° Southwest 477 549 38,000 660 Climbing Cleveland Center
07:32PM 40.9661 -77.9267 223° Southwest 471 542 38,000  Level Cleveland Center
07:33PM 40.8792 -78.0456 226° Southwest 463 533 38,000  Level Cleveland Center
07:34PM 40.7964 -78.1750 230° Southwest 457 526 38,000  Level Cleveland Center
07:35PM 40.7136 -78.3039 230° Southwest 457 526 38,000  Level Cleveland Center
07:36PM 40.6328 -78.4325 230° Southwest 462 532 38,000  Level Cleveland Center
07:37PM 40.5494 -78.5583 229° Southwest 462 532 38,000  Level Cleveland Center
07:38PM 40.4703 -78.6861 231° Southwest 462 532 38,000  Level Cleveland Center
07:39PM 40.3847 -78.8114 228° Southwest 462 532 38,000  Level Cleveland Center
07:40PM 40.3033 -78.9386 230° Southwest 462 532 38,100  Climbing Cleveland Center
07:41PM 40.2197 -79.0631 229° Southwest 462 532 38,000 -60 Descending Cleveland Center
07:42PM 40.1358 -79.1900 229° Southwest 462 532 38,000  Level Cleveland Center
07:43PM 40.0539 -79.3136 229° Southwest 462 532 38,000  Level Cleveland Center
07:44PM 39.9758 -79.4317 229° Southwest 456 525 38,000  Level Cleveland Center
07:45PM 39.8936 -79.5550 229° Southwest 456 525 38,000  Level Cleveland Center
07:46PM 39.8133 -79.6750 229° Southwest 451 519 38,000  Level Cleveland Center
07:47PM 39.7331 -79.7950 229° Southwest 451 519 38,000  Level Cleveland Center
07:48PM 39.6525 -79.9144 229° Southwest 446 513 38,000  Level Cleveland Center
07:50PM 39.4783 -80.1647 228° Southwest 445 512 38,000  Level Indianapolis Center
07:51PM 39.3928 -80.2825 227° Southwest 449 517 38,000  Level Indianapolis Center
07:52PM 39.2928 -80.4244 228° Southwest 444 511 38,000  Level Indianapolis Center
07:53PM 39.2092 -80.5419 227° Southwest 445 512 38,000 -420 Level Indianapolis Center
07:55PM 39.1158 -80.6439 220° Southwest 445 512 37,200 -540 Descending Indianapolis Center
07:56PM 38.9994 -80.7103 204° Southwest 451 519 37,000 -120 Descending Indianapolis Center
07:57PM 38.8844 -80.7758 204° Southwest 452 520 37,000  Level Indianapolis Center
07:58PM 38.7683 -80.8428 204° Southwest 454 522 37,000  Level Indianapolis Center
07:59PM 38.6533 -80.9089 204° Southwest 450 518 37,000  Level Indianapolis Center
08:00PM 38.5389 -80.9736 204° Southwest 448 516 37,000 -420 Level Indianapolis Center
08:01PM 38.4247 -81.0375 204° Southwest 444 511 36,200 -540 Descending Indianapolis Center
08:02PM 38.3100 -81.1028 204° Southwest 447 514 36,000 -120 Descending Indianapolis Center
08:03PM 38.1942 -81.1678 204° Southwest 451 519 36,000  Level Indianapolis Center
08:04PM 38.0558 -81.2447 204° Southwest 449 517 36,000 -120 Level Indianapolis Center
08:05PM 37.9408 -81.3097 204° Southwest 449 517 35,800 -600 Descending Indianapolis Center
08:06PM 37.8286 -81.3719 204° Southwest 441 507 34,800 -1,020 Descending Indianapolis Center
08:07PM 37.7128 -81.4361 204° Southwest 440 506 33,800 -960 Descending Indianapolis Center
08:08PM 37.6056 -81.4978 204° Southwest 437 503 32,900 -900 Descending Indianapolis Center
08:09PM 37.4897 -81.5578 202° Southwest 448 516 32,000 -660 Descending Indianapolis Center
08:10PM 37.3764 -81.6208 204° Southwest 444 511 31,600 -840 Descending Indianapolis Center
08:11PM 37.2389 -81.6972 204° Southwest 460 529 30,400 -1,080 Descending Indianapolis Center
08:12PM 37.1192 -81.7614 203° Southwest 464 534 29,500 -1,020 Descending Indianapolis Center
08:13PM 37.0011 -81.8253 203° Southwest 460 529 28,400 -780 Descending Indianapolis Center
08:14PM 36.8833 -81.8889 203° Southwest 459 528 28,000 -360 Descending Indianapolis Center
08:15PM 36.7656 -81.9519 203° Southwest 458 527 27,700 -660 Descending Indianapolis Center
08:16PM 36.6544 -82.0128 204° Southwest 440 506 26,700 -1,020 Descending Indianapolis Center
08:17PM 36.5414 -82.0728 203° Southwest 438 504 25,700 -1,020 Descending Indianapolis Center
08:18PM 36.4264 -82.1119 195° South 439 505 24,700 -840 Descending Indianapolis Center
08:19PM 36.2989 -82.0386 155° Southeast 434 499 24,000 -1,320 Descending Indianapolis Center
08:20PM 36.1933 -81.9694 152° Southeast 430 495 22,000 -1,920 Descending Indianapolis Center
08:21PM 36.0686 -81.8886 152° Southeast 415 478 19,700 -1,560 Descending Atlanta Center
08:22PM 35.9800 -81.8294 152° Southeast 388 447 18,600 -1,500 Descending Atlanta Center
08:23PM 35.9017 -81.7622 145° Southeast 353 406 16,800 -1,860 Descending Atlanta Center
08:24PM 35.8294 -81.7003 145° Southeast 323 372 15,000 -1,800 Descending Atlanta Center
08:25PM 35.7492 -81.6439 150° Southeast 328 377 13,200 -1,620 Descending Atlanta Center
08:26PM 35.6731 -81.5897 150° Southeast 315 362 11,800 -1,380 Descending Atlanta Center
08:27PM 35.6008 -81.5358 149° Southeast 315 362 10,500 -1,020 Descending Atlanta Center
08:28PM 35.5389 -81.4661 138° Southeast 307 353 9,800 -1,080 Descending Atlanta Center
08:29PM 35.5411 -81.3667 88° East 264 304 8,400 -1,440 Descending Atlanta Center
08:30PM 35.5453 -81.2694 87° East 271 312 7,000 -1,380 Descending Atlanta Center
08:31PM 35.5203 -81.1808 109° East 277 319 5,700 -1,320 Descending Atlanta Center
08:32PM 35.4847 -81.0981 118° Southeast 277 319 4,400 -900 Descending Atlanta Center
08:33PM 35.4397 -81.0436 135° Southeast 250 288 4,000 -720 Descending Atlanta Center
08:35PM 35.3861 -80.9869 139° Southeast 213 245 3,000 -600 Descending Atlanta Center
08:36PM 35.3256 -80.9789 174° South 173 199 2,600 -360 Descending Atlanta Center